Time;durP1;ratioP1;P1;durP2;ratioP2;P2;SDS_P1;SDS_P2;PMS_P1;PMS_P2;Temp;Humidity;BMP_temperature;BMP_pressure;BME280_temperature;BME280_humidity;BME280_pressure;Samples;Min_cycle;Max_cycle;Signal;HPM_P1;HPM_P2
2022/06/10 00:02:10;;;;;;;11.90;4.78;;;;;;;12.63;87.70;101977.72;4953853;29;20402;-68
2022/06/10 00:04:35;;;;;;;5.32;3.55;;;;;;;12.65;88.05;101974.84;4953771;29;20031;-68
2022/06/10 00:07:01;;;;;;;10.45;4.07;;;;;;;12.62;87.83;101968.03;4953605;29;20493;-68
2022/06/10 00:09:26;;;;;;;11.40;4.03;;;;;;;12.60;87.87;101969.22;4953725;29;20046;-68
2022/06/10 00:11:52;;;;;;;7.63;4.25;;;;;;;12.59;88.17;101972.91;4935714;29;20082;-68
2022/06/10 00:14:17;;;;;;;9.15;5.03;;;;;;;12.56;87.75;101981.31;4933755;29;20459;-68
2022/06/10 00:16:42;;;;;;;7.40;4.40;;;;;;;12.52;88.43;101980.00;4951454;29;20129;-68
2022/06/10 00:19:08;;;;;;;8.52;3.70;;;;;;;12.47;88.50;101983.22;4934354;29;20039;-69
2022/06/10 00:21:33;;;;;;;11.48;4.20;;;;;;;12.41;88.82;101986.63;4934205;29;20031;-69
2022/06/10 00:23:58;;;;;;;7.50;4.28;;;;;;;12.34;89.17;101980.31;4934253;29;20084;-69
2022/06/10 00:26:24;;;;;;;6.82;3.72;;;;;;;12.28;89.41;101985.38;4934964;29;20031;-69
2022/06/10 00:28:49;;;;;;;9.55;4.22;;;;;;;12.25;90.30;101980.41;4935087;29;20256;-69
2022/06/10 00:31:17;;;;;;;9.27;3.95;;;;;;;12.27;90.94;101980.22;4934902;29;20027;-69
2022/06/10 00:33:43;;;;;;;8.18;4.65;;;;;;;12.27;90.28;101982.91;4935036;29;20079;-69
2022/06/10 00:36:10;;;;;;;10.80;4.32;;;;;;;12.26;90.40;101979.41;4934980;29;20027;-69
2022/06/10 00:38:35;;;;;;;5.53;3.92;;;;;;;12.26;89.87;101984.75;4935219;29;20032;-69
2022/06/10 00:41:01;;;;;;;9.45;3.70;;;;;;;12.26;90.18;101982.09;4934725;29;20027;-69
2022/06/10 00:43:30;;;;;;;7.50;4.60;;;;;;;12.21;89.98;101975.63;4934855;29;20118;-69
2022/06/10 00:46:26;;;;;;;10.20;5.10;;;;;;;12.16;89.36;101972.66;4934703;29;20082;-68
2022/06/10 00:49:01;;;;;;;7.90;4.85;;;;;;;12.11;90.29;101969.69;4933803;29;20043;-68
2022/06/10 00:51:43;;;;;;;11.57;4.45;;;;;;;12.06;90.49;101971.03;4934711;29;20038;-68
2022/06/10 00:54:38;;;;;;;8.43;4.68;;;;;;;12.07;90.31;101974.53;4953237;29;20039;-68
2022/06/10 00:57:09;;;;;;;12.05;4.35;;;;;;;12.05;90.91;101969.38;4952970;29;20086;-68
2022/06/10 00:59:40;;;;;;;11.18;5.22;;;;;;;11.99;91.52;101963.91;4952957;29;20023;-69
2022/06/10 01:02:13;;;;;;;7.10;3.88;;;;;;;11.99;91.50;101969.25;4953151;29;20034;-69
2022/06/10 01:04:40;;;;;;;8.05;4.22;;;;;;;11.98;91.73;101971.09;4953163;29;20033;-69
2022/06/10 01:07:07;;;;;;;6.75;4.28;;;;;;;11.96;91.49;101970.44;4953099;29;20027;-69
2022/06/10 01:09:33;;;;;;;8.27;4.47;;;;;;;11.97;91.41;101973.94;4953106;29;20039;-69
2022/06/10 01:12:25;;;;;;;7.85;3.80;;;;;;;11.97;90.92;101971.25;4953121;29;20066;-66
2022/06/10 01:15:16;;;;;;;8.32;4.10;;;;;;;11.98;91.02;101962.25;4953024;29;20027;-65
2022/06/10 01:18:09;;;;;;;9.38;5.40;;;;;;;12.06;91.74;101964.84;4952876;29;20027;-66
2022/06/10 01:20:56;;;;;;;10.45;5.38;;;;;;;12.09;91.46;101967.16;4952989;29;20423;-66
2022/06/10 01:23:56;;;;;;;11.13;4.70;;;;;;;12.10;91.17;101966.16;4952908;29;20502;-66
2022/06/10 01:29:56;;;;;;;8.75;4.00;;;;;;;12.24;90.00;101967.22;4952735;29;20058;-66
2022/06/10 01:32:44;;;;;;;7.80;4.60;;;;;;;12.34;89.17;101969.63;4952673;29;20114;-66
2022/06/10 01:35:09;;;;;;;10.95;4.68;;;;;;;12.41;88.89;101971.41;4923715;29;20051;-66
2022/06/10 01:37:48;;;;;;;7.77;4.73;;;;;;;12.45;88.50;101961.19;4952572;29;20032;-66
2022/06/10 01:40:26;;;;;;;6.40;4.05;;;;;;;12.51;88.44;101963.13;4952402;29;20282;-66
2022/06/10 01:43:02;;;;;;;9.98;4.13;;;;;;;12.49;88.53;101960.63;4952434;29;20034;-66
2022/06/10 01:45:49;;;;;;;6.38;3.97;;;;;;;12.57;88.04;101959.72;4952416;29;20058;-66
2022/06/10 01:48:34;;;;;;;6.75;4.80;;;;;;;12.61;88.27;101961.03;4952138;29;20031;-66
2022/06/10 01:51:08;;;;;;;13.15;4.28;;;;;;;12.64;88.38;101957.97;4952515;28;20063;-66
2022/06/10 01:53:57;;;;;;;9.00;4.00;;;;;;;12.67;88.59;101956.78;4952089;29;20047;-66
2022/06/10 01:56:34;;;;;;;11.88;4.20;;;;;;;12.69;88.54;101958.25;4951941;28;20039;-65
2022/06/10 01:59:13;;;;;;;13.23;5.28;;;;;;;12.74;88.44;101962.25;4952141;29;20030;-66
2022/06/10 02:01:44;;;;;;;6.82;3.70;;;;;;;12.77;88.23;101959.19;4952147;29;20027;-66
2022/06/10 02:04:15;;;;;;;9.50;3.57;;;;;;;12.78;88.53;101964.34;4952261;29;20050;-66
2022/06/10 02:07:05;;;;;;;11.40;5.75;;;;;;;12.79;88.46;101966.03;4952064;29;20031;-66
2022/06/10 02:09:47;;;;;;;8.30;4.13;;;;;;;12.77;88.49;101960.03;4951510;29;20043;-66
2022/06/10 02:12:33;;;;;;;10.93;4.18;;;;;;;12.83;88.29;101966.47;4952003;29;20578;-66
2022/06/10 02:15:04;;;;;;;8.88;4.07;;;;;;;12.85;88.18;101961.78;4950539;29;20027;-66
2022/06/10 02:17:38;;;;;;;8.77;3.95;;;;;;;12.88;88.30;101977.47;4951717;29;20033;-66
2022/06/10 02:20:05;;;;;;;16.83;4.85;;;;;;;12.91;88.26;101974.41;4950988;29;20046;-66
2022/06/10 02:22:37;;;;;;;15.02;4.82;;;;;;;12.94;87.72;101968.69;4951685;29;20505;-66
2022/06/10 02:25:12;;;;;;;8.13;3.88;;;;;;;12.99;87.47;101962.78;4951886;28;20527;-66
2022/06/10 02:27:42;;;;;;;10.98;3.40;;;;;;;13.01;87.65;101969.63;4952005;28;20046;-66
2022/06/10 02:30:23;;;;;;;10.60;3.83;;;;;;;13.04;87.61;101973.78;4951621;29;20035;-66
2022/06/10 02:32:49;;;;;;;8.73;4.32;;;;;;;13.06;87.80;101977.94;4951464;29;20055;-66
2022/06/10 02:35:16;;;;;;;9.75;3.55;;;;;;;13.08;87.74;101975.09;4951467;29;20171;-66
2022/06/10 02:37:48;;;;;;;9.75;3.90;;;;;;;13.10;87.66;101976.56;4950822;28;20034;-66
2022/06/10 02:40:23;;;;;;;11.60;3.67;;;;;;;13.11;87.54;101978.22;4951314;29;20024;-66
2022/06/10 02:42:51;;;;;;;10.25;4.10;;;;;;;13.12;88.27;101987.91;4951359;29;20434;-66
2022/06/10 02:45:28;;;;;;;10.57;4.72;;;;;;;13.14;87.91;101982.38;4951296;29;20110;-66
2022/06/10 02:48:09;;;;;;;8.55;3.97;;;;;;;13.17;87.27;101984.66;4951177;29;20046;-66
2022/06/10 02:50:35;;;;;;;11.85;4.15;;;;;;;13.19;87.64;101984.50;4951123;29;20093;-66
2022/06/10 02:53:03;;;;;;;9.35;3.20;;;;;;;13.19;87.36;101979.13;4949643;29;20058;-65
2022/06/10 02:55:28;;;;;;;4.07;3.10;;;;;;;13.22;87.07;101976.91;4951110;29;20470;-66
2022/06/10 03:01:20;;;;;;;5.82;3.33;;;;;;;13.25;87.26;101978.38;4951448;29;20046;-66
2022/06/10 03:03:57;;;;;;;7.25;3.10;;;;;;;13.27;88.12;101971.03;4950339;29;20023;-66
2022/06/10 03:06:36;;;;;;;11.80;3.95;;;;;;;13.25;89.30;101976.53;4951141;29;20043;-66
2022/06/10 03:09:18;;;;;;;9.48;4.65;;;;;;;13.22;89.02;101984.94;4950980;29;20446;-66
2022/06/10 03:12:18;;;;;;;10.93;4.20;;;;;;;13.22;88.15;101984.94;4950924;29;20148;-66
2022/06/10 03:14:55;;;;;;;18.75;4.20;;;;;;;13.24;88.18;101987.44;4950758;28;20035;-66
2022/06/10 03:17:29;;;;;;;10.93;4.03;;;;;;;13.25;88.82;101989.09;4950920;29;20102;-65
2022/06/10 03:20:09;;;;;;;10.68;4.05;;;;;;;13.27;88.73;101989.78;4951085;29;20493;-66
2022/06/10 03:23:04;;;;;;;18.30;4.28;;;;;;;13.27;88.50;101995.97;4950414;29;20038;-65
2022/06/10 03:25:52;;;;;;;11.80;3.97;;;;;;;13.26;88.46;101994.31;4950854;29;20454;-66
2022/06/10 03:28:31;;;;;;;10.98;4.18;;;;;;;13.31;88.53;101996.44;4950745;29;20487;-66
2022/06/10 03:31:23;;;;;;;12.90;4.18;;;;;;;13.28;88.63;101988.75;4950730;29;20038;-66
2022/06/10 03:34:03;;;;;;;15.27;4.45;;;;;;;13.33;88.49;102000.56;4950783;29;20038;-66
2022/06/10 03:36:31;;;;;;;15.68;3.92;;;;;;;13.33;88.54;102000.56;4950566;29;20038;-66
2022/06/10 03:38:57;;;;;;;19.33;6.63;;;;;;;13.36;89.25;102002.03;4950836;29;20025;-66
2022/06/10 03:41:37;;;;;;;16.13;3.95;;;;;;;13.37;89.26;102004.53;4950601;29;20050;-68
2022/06/10 03:44:10;;;;;;;15.38;3.70;;;;;;;13.38;89.06;102002.69;4950505;28;20387;-68
2022/06/10 03:46:35;;;;;;;15.63;5.30;;;;;;;13.40;89.22;102003.34;4950600;29;20027;-68
2022/06/10 03:49:06;;;;;;;13.77;4.18;;;;;;;13.44;89.67;102004.66;4951891;28;20509;-68
2022/06/10 03:51:32;;;;;;;12.95;4.63;;;;;;;13.46;89.42;102005.25;4954068;29;20119;-68
2022/06/10 03:53:58;;;;;;;11.80;4.80;;;;;;;13.48;89.62;102010.44;4953163;29;20499;-68
2022/06/10 03:56:24;;;;;;;13.48;4.65;;;;;;;13.51;89.31;102015.44;4953039;29;20118;-68
2022/06/10 03:58:50;;;;;;;14.82;3.88;;;;;;;13.53;89.16;102016.91;4953527;29;20055;-68
2022/06/10 04:01:16;;;;;;;10.48;3.67;;;;;;;13.55;88.88;102009.50;4953672;29;20101;-68
2022/06/10 04:03:41;;;;;;;14.48;4.30;;;;;;;13.58;88.98;102014.50;4953114;29;20579;-68
2022/06/10 04:06:07;;;;;;;13.15;4.72;;;;;;;13.59;89.63;102018.81;4936047;29;20498;-68
2022/06/10 04:08:32;;;;;;;9.65;4.93;;;;;;;13.56;89.49;102016.53;4953718;29;20026;-68
2022/06/10 04:10:58;;;;;;;10.05;3.72;;;;;;;13.58;89.64;102025.22;4953038;29;20376;-68
2022/06/10 04:13:24;;;;;;;16.83;4.03;;;;;;;13.57;90.21;102012.84;4953412;29;20070;-68
2022/06/10 04:15:49;;;;;;;16.02;4.80;;;;;;;13.58;89.87;102024.38;4952899;29;20059;-68
2022/06/10 04:18:15;;;;;;;13.25;3.80;;;;;;;13.57;89.08;102020.88;4953570;29;20035;-68
2022/06/10 04:20:41;;;;;;;14.57;5.07;;;;;;;13.58;89.66;102019.84;4953530;29;20035;-68
2022/06/10 04:23:07;;;;;;;14.50;4.55;;;;;;;13.59;89.53;102021.50;4952797;29;20046;-68
2022/06/10 04:25:34;;;;;;;11.00;4.40;;;;;;;13.57;89.27;102020.88;4952775;29;20039;-68
2022/06/10 04:28:00;;;;;;;10.95;4.20;;;;;;;13.62;89.31;102035.56;4952937;29;20062;-69
2022/06/10 04:30:32;;;;;;;13.30;4.60;;;;;;;13.65;89.16;102035.19;4953262;29;20126;-69
2022/06/10 04:32:59;;;;;;;13.65;4.32;;;;;;;13.61;88.67;102036.59;4953331;29;20035;-69
2022/06/10 04:35:26;;;;;;;15.88;4.43;;;;;;;13.68;89.43;102041.00;4952332;29;20042;-69
2022/06/10 04:37:53;;;;;;;13.32;5.72;;;;;;;13.71;89.75;102037.13;4952786;29;20101;-69
2022/06/10 04:40:22;;;;;;;8.07;3.25;;;;;;;13.73;89.64;102040.47;4953019;29;20035;-69
2022/06/10 04:42:48;;;;;;;21.63;4.65;;;;;;;13.76;89.97;102034.72;4952809;29;20631;-69
2022/06/10 04:45:16;;;;;;;14.52;3.72;;;;;;;13.80;89.43;102035.97;4953093;29;20162;-69
2022/06/10 04:47:41;;;;;;;21.25;5.43;;;;;;;13.85;89.37;102036.25;4952785;29;20039;-68
2022/06/10 04:50:09;;;;;;;11.70;4.05;;;;;;;13.86;89.05;102024.53;4952595;29;20042;-68
2022/06/10 04:52:35;;;;;;;17.55;4.82;;;;;;;13.93;89.66;102033.44;4952591;29;20495;-68
2022/06/10 04:55:02;;;;;;;10.43;3.53;;;;;;;14.02;89.47;102035.00;4952430;29;20506;-68
2022/06/10 04:57:27;;;;;;;15.25;3.63;;;;;;;14.08;90.36;102033.41;4952549;29;20019;-68
2022/06/10 04:59:52;;;;;;;13.10;4.93;;;;;;;14.12;89.49;102033.84;4952349;28;20028;-68
2022/06/10 05:02:18;;;;;;;10.57;3.75;;;;;;;14.17;88.58;102036.78;4952369;29;20035;-68
2022/06/10 05:04:43;;;;;;;7.70;3.40;;;;;;;14.15;88.49;102034.31;4952758;29;20087;-68
2022/06/10 05:07:09;;;;;;;10.75;3.22;;;;;;;14.21;88.99;102032.72;4935090;29;20047;-68
2022/06/10 05:09:34;;;;;;;6.78;3.33;;;;;;;14.24;89.01;102040.38;4952563;29;20043;-68
2022/06/10 05:11:59;;;;;;;9.15;4.13;;;;;;;14.24;88.92;102032.31;4933693;29;20035;-68
2022/06/10 05:14:25;;;;;;;6.80;3.60;;;;;;;14.28;88.99;102032.75;4934026;29;20035;-68
2022/06/10 05:16:50;;;;;;;10.10;3.15;;;;;;;14.29;88.67;102037.94;4933808;29;20039;-68
2022/06/10 05:19:15;;;;;;;12.43;4.63;;;;;;;14.33;88.98;102031.19;4933876;29;20038;-68
2022/06/10 05:21:41;;;;;;;15.68;4.22;;;;;;;14.35;88.74;102031.78;4933815;29;20039;-69
2022/06/10 05:24:06;;;;;;;18.42;3.25;;;;;;;14.40;88.74;102036.59;4933721;29;20063;-69
2022/06/10 05:26:33;;;;;;;7.28;3.25;;;;;;;14.44;88.98;102030.66;4933495;29;20491;-69
2022/06/10 05:29:00;;;;;;;12.00;3.50;;;;;;;14.48;88.89;102028.41;4933707;29;20396;-69
2022/06/10 05:31:25;;;;;;;10.35;3.55;;;;;;;14.55;88.92;102023.13;4933805;29;20032;-69
2022/06/10 05:36:35;;;;;;;10.00;4.53;;;;;;;14.55;88.56;102025.81;4936010;29;20091;-69
2022/06/10 05:39:00;;;;;;;9.15;2.38;;;;;;;14.56;89.60;102032.84;4951935;29;20027;-69
2022/06/10 05:44:10;;;;;;;8.80;2.67;;;;;;;14.53;88.27;102023.31;4951556;29;20046;-69
2022/06/10 05:46:35;;;;;;;7.32;3.35;;;;;;;14.55;88.63;102032.00;4951798;29;20894;-69
2022/06/10 05:49:02;;;;;;;3.95;2.67;;;;;;;14.56;88.02;102027.47;4951756;29;20035;-68
2022/06/10 05:51:27;;;;;;;10.15;4.15;;;;;;;14.54;89.35;102027.69;4951828;29;20105;-68
2022/06/10 05:53:53;;;;;;;8.18;2.90;;;;;;;14.56;89.21;102024.78;4951504;29;20503;-68
2022/06/10 05:56:18;;;;;;;6.65;3.00;;;;;;;14.61;89.19;102025.84;4951721;29;20110;-68
2022/06/10 05:58:44;;;;;;;11.52;2.78;;;;;;;14.65;89.29;102029.81;4951697;29;20039;-68
2022/06/10 06:01:09;;;;;;;12.15;3.40;;;;;;;14.49;89.27;101987.13;4951643;29;20125;-68
2022/06/10 06:03:34;;;;;;;8.20;2.75;;;;;;;14.75;89.38;102031.31;4951616;29;20038;-69
2022/06/10 06:06:00;;;;;;;11.95;3.40;;;;;;;14.79;88.95;102024.56;4951085;29;20469;-68
2022/06/10 06:08:26;;;;;;;13.38;3.58;;;;;;;14.82;89.77;102029.53;4951190;29;20445;-68
2022/06/10 06:10:51;;;;;;;7.32;2.40;;;;;;;14.85;89.34;102027.28;4951416;29;20498;-68
2022/06/10 06:13:16;;;;;;;13.32;3.20;;;;;;;14.92;89.26;102030.00;4950770;28;20046;-69
2022/06/10 06:15:42;;;;;;;7.25;3.42;;;;;;;15.01;89.65;102033.38;4951165;29;20044;-69
2022/06/10 06:18:09;;;;;;;11.82;3.78;;;;;;;15.11;89.88;102039.22;4950950;29;20039;-69
2022/06/10 06:20:34;;;;;;;5.57;3.15;;;;;;;15.23;88.33;102032.28;4951364;29;20042;-69
2022/06/10 06:23:00;;;;;;;4.80;2.20;;;;;;;15.40;88.77;102040.00;4951201;29;20042;-69
2022/06/10 06:25:29;;;;;;;11.25;4.25;;;;;;;15.51;87.14;102034.03;4951180;29;20535;-69
2022/06/10 06:27:55;;;;;;;10.50;2.70;;;;;;;15.60;86.60;102038.22;4950666;29;20494;-69
2022/06/10 06:30:32;;;;;;;8.98;2.97;;;;;;;15.66;86.61;102044.66;4951269;29;20027;-69
2022/06/10 06:33:01;;;;;;;6.55;2.60;;;;;;;15.65;86.50;102045.72;4951160;29;20623;-70
2022/06/10 06:35:27;;;;;;;4.50;2.70;;;;;;;15.67;86.21;102049.03;4950205;29;20038;-69
2022/06/10 06:37:52;;;;;;;7.20;2.97;;;;;;;15.72;85.97;102050.13;4950801;29;20039;-69
2022/06/10 06:40:18;;;;;;;6.40;2.72;;;;;;;15.76;86.00;102037.91;4950992;29;20081;-69
2022/06/10 06:42:44;;;;;;;4.70;2.38;;;;;;;15.83;85.85;102046.00;4950964;29;20077;-69
2022/06/10 06:45:11;;;;;;;5.10;2.35;;;;;;;15.90;85.79;102046.88;4951047;29;20526;-69
2022/06/10 06:47:36;;;;;;;8.75;2.35;;;;;;;15.96;84.83;102040.66;4950943;29;20090;-69
2022/06/10 06:50:03;;;;;;;11.40;3.22;;;;;;;16.00;83.69;102049.16;4950740;29;20041;-68
2022/06/10 06:52:28;;;;;;;4.28;2.25;;;;;;;16.05;83.88;102049.38;4933643;29;20063;-68
2022/06/10 06:54:54;;;;;;;5.78;2.50;;;;;;;16.11;84.11;102047.72;4951284;29;20049;-68
2022/06/10 06:57:20;;;;;;;5.32;1.77;;;;;;;16.14;83.95;102053.53;4950670;29;21075;-69
2022/06/10 06:59:46;;;;;;;5.93;1.80;;;;;;;16.23;84.04;102069.50;4951310;29;20073;-69
2022/06/10 07:02:11;;;;;;;9.57;2.10;;;;;;;16.24;83.42;102058.50;4951295;29;20035;-69
2022/06/10 07:04:37;;;;;;;5.32;2.00;;;;;;;16.28;83.81;102061.66;4949707;28;20074;-66
2022/06/10 07:07:03;;;;;;;4.85;1.80;;;;;;;16.33;82.39;102067.25;4950853;29;20019;-66
2022/06/10 07:09:29;;;;;;;6.32;2.00;;;;;;;16.38;81.62;102062.91;4950984;29;20042;-66
2022/06/10 07:11:55;;;;;;;3.15;1.73;;;;;;;16.42;82.68;102068.69;4951360;29;20027;-66
2022/06/10 07:14:22;;;;;;;4.53;2.10;;;;;;;16.44;81.95;102061.25;4951217;29;20041;-66
2022/06/10 07:16:51;;;;;;;5.25;2.05;;;;;;;16.56;83.78;102058.78;4951186;29;20249;-66
2022/06/10 07:19:17;;;;;;;8.13;1.60;;;;;;;16.62;82.53;102052.56;4951051;29;20086;-66
2022/06/10 07:21:42;;;;;;;5.53;1.88;;;;;;;16.72;83.01;102060.22;4950606;29;20368;-66
2022/06/10 07:24:07;;;;;;;7.15;2.42;;;;;;;16.74;82.46;102058.97;4952949;28;20043;-66
2022/06/10 07:26:33;;;;;;;4.40;1.73;;;;;;;16.78;82.18;102054.03;4954757;29;20578;-68
2022/06/10 07:28:58;;;;;;;8.75;2.13;;;;;;;16.81;81.38;102054.44;4954293;29;20067;-67
2022/06/10 07:31:23;;;;;;;3.90;2.10;;;;;;;16.86;81.72;102059.19;4954745;29;20035;-67
2022/06/10 07:33:49;;;;;;;8.15;2.03;;;;;;;16.92;81.89;102061.06;4954699;29;20099;-66
2022/06/10 07:36:14;;;;;;;9.43;2.88;;;;;;;16.93;81.09;102051.13;4954830;29;20406;-65
2022/06/10 07:38:40;;;;;;;11.88;3.22;;;;;;;17.12;80.15;102068.28;4954706;29;20114;-66
2022/06/10 07:43:49;;;;;;;3.72;2.03;;;;;;;17.32;79.50;102066.38;4954892;29;20054;-69
2022/06/10 07:46:18;;;;;;;8.02;1.85;;;;;;;17.42;78.92;102063.22;4954535;29;20456;-69
2022/06/10 07:48:44;;;;;;;7.05;2.03;;;;;;;17.45;78.48;102065.53;4954460;29;20114;-69
2022/06/10 07:51:10;;;;;;;9.50;2.65;;;;;;;17.42;77.87;102055.13;4954281;28;20850;-69
2022/06/10 07:53:35;;;;;;;5.95;2.20;;;;;;;17.41;78.53;102056.19;4954189;29;20146;-69
2022/06/10 07:56:03;;;;;;;7.47;1.75;;;;;;;17.53;78.47;102060.72;4954457;29;20119;-69
2022/06/10 07:58:29;;;;;;;5.93;1.70;;;;;;;17.71;77.76;102065.41;4954267;29;20431;-69
2022/06/10 08:00:57;;;;;;;4.88;2.03;;;;;;;17.94;75.79;102059.50;4954345;29;20501;-69
2022/06/10 08:03:22;;;;;;;3.05;1.85;;;;;;;17.99;75.93;102058.03;4954294;29;20027;-69
2022/06/10 08:05:48;;;;;;;3.00;2.05;;;;;;;17.95;76.33;102055.78;4954294;29;20562;-69
2022/06/10 08:08:16;;;;;;;5.47;1.80;;;;;;;18.03;76.59;102060.09;4953939;29;20364;-69
2022/06/10 08:10:41;;;;;;;6.25;1.50;;;;;;;18.17;77.78;102060.81;4954018;28;20429;-69
2022/06/10 08:13:07;;;;;;;16.40;2.75;;;;;;;18.26;76.30;102053.28;4954124;29;20031;-66
2022/06/10 08:15:34;;;;;;;4.25;2.28;;;;;;;18.34;76.06;102066.56;4954094;29;20106;-66
2022/06/10 08:17:59;;;;;;;4.82;1.63;;;;;;;18.31;76.75;102067.81;4954026;29;20039;-66
2022/06/10 08:23:19;;;;;;;8.32;1.70;;;;;;;18.18;75.90;102060.63;4953315;29;20046;-66
2022/06/10 08:25:45;;;;;;;4.85;1.70;;;;;;;18.21;75.69;102062.06;4953807;29;20027;-66
2022/06/10 08:28:11;;;;;;;5.47;1.60;;;;;;;18.22;75.19;102060.19;4953674;29;20035;-66
2022/06/10 08:30:37;;;;;;;1.00;0.95;;;;;;;18.26;72.79;102061.38;4953326;29;20070;-66
2022/06/10 08:33:03;;;;;;;6.95;2.45;;;;;;;18.35;72.83;102063.63;4952442;29;20039;-66
2022/06/10 08:35:30;;;;;;;5.35;1.52;;;;;;;18.38;72.60;102059.66;4952698;28;20549;-66
2022/06/10 08:37:56;;;;;;;4.60;1.58;;;;;;;18.40;73.96;102061.09;4953685;29;20082;-65
2022/06/10 08:40:35;;;;;;;4.00;1.33;;;;;;;18.51;72.70;102064.94;4953562;29;20517;-66
2022/06/10 08:43:28;;;;;;;4.10;1.38;;;;;;;18.60;72.48;102065.50;4953521;29;20059;-66
2022/06/10 08:46:28;;;;;;;6.72;1.45;;;;;;;18.78;74.64;102060.16;4953237;29;20860;-66
2022/06/10 08:49:15;;;;;;;6.60;2.03;;;;;;;18.92;71.50;102057.38;4953430;29;20027;-66
2022/06/10 08:51:52;;;;;;;7.57;1.60;;;;;;;19.08;70.60;102053.25;4952028;28;20047;-66
2022/06/10 08:54:35;;;;;;;6.25;2.25;;;;;;;19.17;72.22;102054.59;4952900;29;20063;-66
2022/06/10 08:57:06;;;;;;;7.63;2.45;;;;;;;19.23;71.39;102057.25;4953323;29;20046;-66
2022/06/10 08:59:42;;;;;;;7.03;2.03;;;;;;;19.27;69.69;102052.22;4953376;29;20183;-66
2022/06/10 09:02:27;;;;;;;6.57;2.47;;;;;;;19.22;69.04;102052.06;4953252;29;20475;-66
2022/06/10 09:05:17;;;;;;;4.05;1.90;;;;;;;19.13;68.65;102043.41;4953220;29;20437;-66
2022/06/10 09:07:48;;;;;;;5.25;1.80;;;;;;;19.06;69.11;102048.06;4953090;29;20039;-66
2022/06/10 09:10:20;;;;;;;2.33;1.90;;;;;;;19.10;68.97;102045.72;4952872;29;20054;-66
2022/06/10 09:13:10;;;;;;;11.45;2.47;;;;;;;19.17;69.63;102046.50;4952934;29;20110;-66
2022/06/10 09:15:43;;;;;;;14.02;2.83;;;;;;;19.31;68.68;102041.75;4952459;29;20023;-66
2022/06/10 09:18:19;;;;;;;6.88;2.75;;;;;;;19.75;66.77;102058.72;4952907;29;20493;-66
2022/06/10 09:21:12;;;;;;;11.95;2.42;;;;;;;20.32;67.83;102060.00;4952889;29;20027;-66
2022/06/10 09:23:42;;;;;;;10.15;2.75;;;;;;;20.47;65.86;102061.44;4948083;29;20047;-66
2022/06/10 09:26:16;;;;;;;8.68;2.42;;;;;;;20.69;64.18;102051.72;4952587;29;20118;-66
2022/06/10 09:28:42;;;;;;;5.53;2.40;;;;;;;20.82;63.71;102052.53;4952748;29;20027;-66
2022/06/10 09:31:20;;;;;;;7.30;2.47;;;;;;;21.04;63.73;102061.75;4952765;29;20514;-66
2022/06/10 09:34:24;;;;;;;6.93;2.90;;;;;;;21.10;65.61;102058.06;4952204;29;20027;-64
2022/06/10 09:37:12;;;;;;;6.68;2.28;;;;;;;21.07;63.17;102061.28;4952473;29;20039;-65
2022/06/10 09:42:47;;;;;;;10.07;2.60;;;;;;;20.96;62.46;102052.09;4952454;29;20038;-65
2022/06/10 09:45:48;;;;;;;3.33;2.15;;;;;;;21.06;64.05;102046.03;4952479;29;20077;-64
2022/06/10 09:48:28;;;;;;;7.28;2.72;;;;;;;20.88;62.39;102049.72;4951713;28;20082;-64
2022/06/10 09:50:56;;;;;;;6.40;2.92;;;;;;;20.74;64.02;102045.59;4952031;29;20039;-64
2022/06/10 09:53:52;;;;;;;7.38;2.22;;;;;;;20.91;67.49;102051.97;4950788;29;20158;-64
2022/06/10 09:56:39;;;;;;;6.90;2.42;;;;;;;20.82;63.27;102053.38;4952369;28;20065;-64
2022/06/10 09:59:15;;;;;;;6.68;3.55;;;;;;;20.60;64.20;102053.13;4952312;28;20363;-64
2022/06/10 10:01:57;;;;;;;6.07;2.30;;;;;;;20.50;66.04;102058.28;4952099;29;20030;-64
2022/06/10 10:04:47;;;;;;;10.07;3.20;;;;;;;20.54;66.96;102057.59;4952007;29;20032;-65
2022/06/10 10:07:25;;;;;;;6.20;2.28;;;;;;;20.58;66.97;102058.78;4951912;29;20034;-65
2022/06/10 10:10:03;;;;;;;7.32;2.42;;;;;;;20.64;67.01;102058.91;4951881;29;20579;-64
2022/06/10 10:13:06;;;;;;;7.68;2.40;;;;;;;20.71;66.02;102063.16;4951176;29;20042;-64
2022/06/10 10:15:35;;;;;;;5.00;2.42;;;;;;;20.82;65.85;102055.25;4951729;28;20061;-63
2022/06/10 10:18:08;;;;;;;8.27;2.67;;;;;;;20.89;65.22;102062.22;4951784;29;20033;-64
2022/06/10 10:20:58;;;;;;;9.32;3.25;;;;;;;20.85;65.32;102050.19;4951413;29;20049;-64
2022/06/10 10:23:35;;;;;;;8.18;3.15;;;;;;;21.05;65.36;102046.28;4951764;29;20082;-64
2022/06/10 10:26:10;;;;;;;5.57;2.60;;;;;;;21.29;65.03;102050.59;4951254;29;20056;-64
2022/06/10 10:28:41;;;;;;;6.18;2.83;;;;;;;21.49;67.80;102050.25;4951341;29;20039;-65
2022/06/10 10:31:21;;;;;;;8.77;2.67;;;;;;;21.72;64.41;102057.50;4951577;29;20039;-64
2022/06/10 10:33:47;;;;;;;7.05;2.85;;;;;;;21.75;64.64;102031.75;4951298;29;20082;-64
2022/06/10 10:36:24;;;;;;;5.93;2.88;;;;;;;21.78;65.56;102053.81;4950965;29;20035;-65
2022/06/10 10:38:51;;;;;;;10.38;4.65;;;;;;;21.71;64.77;102050.41;4951458;29;20051;-65
2022/06/10 10:41:40;;;;;;;6.90;2.92;;;;;;;21.65;64.92;102048.66;4951552;29;20046;-64
2022/06/10 10:44:28;;;;;;;12.27;3.65;;;;;;;21.56;62.40;102041.94;4951426;29;20483;-65
2022/06/10 10:47:02;;;;;;;7.70;3.25;;;;;;;21.56;62.75;102045.50;4951591;29;20031;-65
2022/06/10 10:49:34;;;;;;;8.57;2.95;;;;;;;21.65;65.75;102043.22;4947931;29;20058;-64
2022/06/10 10:52:25;;;;;;;6.55;3.15;;;;;;;21.73;64.08;102037.41;4947101;29;20043;-64
2022/06/10 10:54:56;;;;;;;10.43;2.80;;;;;;;21.94;64.67;102043.22;4947417;28;20146;-66
2022/06/10 10:57:32;;;;;;;7.43;2.92;;;;;;;22.19;62.54;102035.56;4947501;29;20089;-66
2022/06/10 11:00:12;;;;;;;11.10;4.07;;;;;;;22.17;61.96;102036.84;4946690;29;20019;-65
2022/06/10 11:02:39;;;;;;;9.77;3.92;;;;;;;21.96;61.99;102036.50;4947396;28;20483;-65
2022/06/10 11:05:34;;;;;;;10.15;3.97;;;;;;;21.72;62.55;102041.22;4946373;28;20031;-65
2022/06/10 11:08:32;;;;;;;5.95;2.90;;;;;;;21.60;64.82;102045.84;4945033;29;20046;-64
2022/06/10 11:11:10;;;;;;;11.23;3.60;;;;;;;21.54;63.56;102046.81;4944154;29;20081;-66
2022/06/10 11:13:44;;;;;;;6.38;2.80;;;;;;;21.47;65.77;102036.09;4948468;29;20028;-65
2022/06/10 11:16:23;;;;;;;8.95;3.65;;;;;;;21.40;63.79;102035.41;4951190;29;20075;-65
2022/06/10 11:18:51;;;;;;;10.10;4.18;;;;;;;21.22;64.12;102039.06;4951072;29;20034;-65
2022/06/10 11:21:17;;;;;;;11.23;4.35;;;;;;;21.16;65.85;102045.44;4950935;29;20027;-64
2022/06/10 11:23:51;;;;;;;5.47;3.38;;;;;;;21.04;65.28;102047.34;4950903;29;20059;-65
2022/06/10 11:26:18;;;;;;;11.43;3.70;;;;;;;20.98;66.19;102047.22;4950853;29;20403;-65
2022/06/10 11:28:45;;;;;;;6.28;3.28;;;;;;;21.15;64.71;102043.81;4950122;29;20029;-65
2022/06/10 11:31:49;;;;;;;8.68;3.53;;;;;;;21.43;66.34;102041.19;4949400;29;20122;-64
2022/06/10 11:34:27;;;;;;;7.28;3.92;;;;;;;21.57;65.60;102043.63;4950908;29;20031;-65
2022/06/10 11:36:54;;;;;;;8.30;3.42;;;;;;;21.75;65.13;102034.47;4949931;29;20186;-65
2022/06/10 11:39:35;;;;;;;10.20;3.42;;;;;;;21.92;66.03;102034.50;4950669;29;20034;-66
2022/06/10 11:42:00;;;;;;;8.38;3.28;;;;;;;22.31;64.49;102032.78;4949374;29;20403;-66
2022/06/10 11:44:31;;;;;;;7.15;3.40;;;;;;;22.40;65.10;102019.59;4949538;29;20122;-66
2022/06/10 11:47:02;;;;;;;12.73;5.57;;;;;;;22.56;62.52;102029.66;4950957;29;20034;-66
2022/06/10 11:49:40;;;;;;;4.55;3.30;;;;;;;22.57;62.53;102019.59;4950751;29;20608;-66
2022/06/10 11:52:22;;;;;;;9.05;3.38;;;;;;;22.35;62.65;102023.06;4950455;29;20046;-66
2022/06/10 11:55:03;;;;;;;6.30;3.40;;;;;;;22.03;61.66;102022.75;4950758;29;20097;-65
2022/06/10 12:00:43;;;;;;;12.38;3.65;;;;;;;22.26;67.30;102017.19;4950638;29;20037;-66
2022/06/10 12:03:27;;;;;;;8.07;3.92;;;;;;;22.27;62.73;102012.59;4950639;29;20039;-67
2022/06/10 12:06:33;;;;;;;10.73;4.40;;;;;;;22.09;62.72;102019.06;4946863;29;20394;-65
2022/06/10 12:09:10;;;;;;;6.55;3.58;;;;;;;21.96;62.52;102011.22;4946116;29;20038;-66
2022/06/10 12:11:58;;;;;;;8.05;3.78;;;;;;;21.72;63.21;102005.06;4949076;29;20038;-65